Time;durP1;ratioP1;P1;durP2;ratioP2;P2;SDS_P1;SDS_P2;PMS_P1;PMS_P2;Temp;Humidity;BMP_temperature;BMP_pressure;BME280_temperature;BME280_humidity;BME280_pressure;Samples;Min_cycle;Max_cycle;Signal;HPM_P1;HPM_P2
2022/07/03 00:02:07;;;;;;;3.10;2.90;;;18.20;99.90;;;;;;4992265;28;20179;-67
2022/07/03 00:04:32;;;;;;;2.83;2.63;;;18.20;99.90;;;;;;4993506;28;20506;-66
2022/07/03 00:06:58;;;;;;;3.00;2.80;;;18.10;99.90;;;;;;4992149;28;20630;-66
2022/07/03 00:09:23;;;;;;;3.00;2.73;;;18.20;99.90;;;;;;4994955;28;20185;-67
2022/07/03 00:11:49;;;;;;;3.40;3.10;;;18.20;99.90;;;;;;4990892;28;20205;-67
2022/07/03 00:14:15;;;;;;;6.27;3.37;;;18.10;99.90;;;;;;4992517;28;20232;-67
2022/07/03 00:16:40;;;;;;;5.23;2.60;;;18.10;99.90;;;;;;4991348;28;20235;-66
2022/07/03 00:19:07;;;;;;;3.00;2.80;;;18.00;99.90;;;;;;4991167;28;20696;-67
2022/07/03 00:21:49;;;;;;;3.13;2.93;;;18.00;99.90;;;;;;4990315;28;20239;-67
2022/07/03 00:24:28;;;;;;;3.20;3.00;;;18.00;99.90;;;;;;4999875;28;20833;-65
2022/07/03 00:26:54;;;;;;;3.30;3.10;;;17.90;99.90;;;;;;4989437;28;20464;-66
2022/07/03 00:29:22;;;;;;;3.17;2.97;;;17.90;99.90;;;;;;4989932;28;20521;-65
2022/07/03 00:31:48;;;;;;;3.10;2.90;;;18.00;99.90;;;;;;4990760;28;20457;-66
2022/07/03 00:34:16;;;;;;;3.90;3.20;;;17.90;99.90;;;;;;4994441;28;20446;-66
2022/07/03 00:36:44;;;;;;;3.20;3.00;;;18.00;99.90;;;;;;4991483;28;20484;-66
2022/07/03 00:39:10;;;;;;;6.00;3.20;;;18.00;99.90;;;;;;4989824;28;20473;-65
2022/07/03 00:41:36;;;;;;;3.17;2.97;;;18.00;99.90;;;;;;4992767;28;20964;-67
2022/07/03 00:44:02;;;;;;;3.00;2.80;;;17.90;99.90;;;;;;4990771;28;20180;-66
2022/07/03 00:46:29;;;;;;;3.13;2.83;;;17.90;99.90;;;;;;4982228;28;20700;-67
2022/07/03 00:48:56;;;;;;;3.87;3.53;;;17.90;99.90;;;;;;4990641;28;20439;-66
2022/07/03 00:51:27;;;;;;;2.43;2.33;;;17.80;99.90;;;;;;4986561;28;20438;-66
2022/07/03 00:53:55;;;;;;;3.13;2.87;;;17.70;99.90;;;;;;4990536;28;20434;-67
2022/07/03 00:56:26;;;;;;;3.37;3.17;;;17.70;99.90;;;;;;4987110;28;20557;-66
2022/07/03 00:58:57;;;;;;;3.27;3.07;;;17.50;99.90;;;;;;4989897;28;20474;-65
2022/07/03 01:01:26;;;;;;;3.33;3.13;;;17.60;99.90;;;;;;4998330;28;20442;-66
2022/07/03 01:04:06;;;;;;;3.60;3.30;;;17.50;99.90;;;;;;4991126;28;20434;-67
2022/07/03 01:06:38;;;;;;;3.10;2.90;;;17.60;99.90;;;;;;4986374;28;20824;-67
2022/07/03 01:09:05;;;;;;;3.67;3.37;;;17.60;99.90;;;;;;4998523;28;20477;-67
2022/07/03 01:11:39;;;;;;;3.33;3.10;;;17.60;99.90;;;;;;4989697;28;20512;-65
2022/07/03 01:14:32;;;;;;;3.40;3.13;;;17.50;99.90;;;;;;4989122;28;20449;-67
2022/07/03 01:17:02;;;;;;;3.33;3.10;;;17.50;99.90;;;;;;4987703;28;20454;-65
2022/07/03 01:19:41;;;;;;;4.17;3.27;;;17.50;99.90;;;;;;4990137;28;20474;-66
2022/07/03 01:22:34;;;;;;;3.30;3.10;;;17.50;99.90;;;;;;4990214;28;20434;-66
2022/07/03 01:25:16;;;;;;;3.47;3.27;;;17.40;99.90;;;;;;4986580;28;20442;-67
2022/07/03 01:27:55;;;;;;;2.73;2.53;;;17.30;99.90;;;;;;4986332;28;20454;-67
2022/07/03 01:30:23;;;;;;;3.17;2.97;;;17.30;99.90;;;;;;4991010;28;20537;-66
2022/07/03 01:33:11;;;;;;;4.37;3.20;;;17.40;99.90;;;;;;4990671;28;20588;-66
2022/07/03 01:35:41;;;;;;;3.37;3.07;;;17.30;99.90;;;;;;4997178;28;20472;-65
2022/07/03 01:38:10;;;;;;;3.43;3.23;;;17.30;99.90;;;;;;4990500;28;20507;-67
2022/07/03 01:40:38;;;;;;;3.40;3.10;;;17.10;99.90;;;;;;4988460;28;20438;-67
2022/07/03 01:43:09;;;;;;;3.80;3.50;;;17.00;99.90;;;;;;4992870;28;20438;-67
2022/07/03 01:45:55;;;;;;;3.33;3.13;;;17.00;99.90;;;;;;4990355;28;20944;-66
2022/07/03 01:48:22;;;;;;;5.57;5.10;;;17.00;99.90;;;;;;4990225;28;20446;-64
2022/07/03 01:50:49;;;;;;;5.20;4.80;;;17.10;99.90;;;;;;4999373;28;20441;-67
2022/07/03 01:53:15;;;;;;;3.80;3.60;;;17.10;99.90;;;;;;4989630;28;20526;-67
2022/07/03 01:55:42;;;;;;;3.00;2.80;;;17.20;99.90;;;;;;4993701;28;20466;-67
2022/07/03 01:58:08;;;;;;;3.40;3.10;;;17.30;99.90;;;;;;4991645;28;20948;-66
2022/07/03 02:00:49;;;;;;;4.47;3.33;;;17.30;99.90;;;;;;4989505;28;20493;-66
2022/07/03 02:03:25;;;;;;;3.57;3.30;;;17.20;99.90;;;;;;4989013;28;20470;-67
2022/07/03 02:06:14;;;;;;;3.80;3.10;;;17.10;99.90;;;;;;4990309;28;20438;-67
2022/07/03 02:08:46;;;;;;;3.60;3.30;;;17.00;99.90;;;;;;4988664;28;20446;-67
2022/07/03 02:11:22;;;;;;;3.90;3.60;;;17.00;99.90;;;;;;4989331;28;20493;-67
2022/07/03 02:14:07;;;;;;;4.57;3.27;;;17.00;99.90;;;;;;4989037;28;20442;-64
2022/07/03 02:16:51;;;;;;;3.00;2.80;;;17.10;99.90;;;;;;4985048;28;20577;-66
2022/07/03 02:19:17;;;;;;;3.30;3.00;;;17.10;99.90;;;;;;4990408;28;20607;-67
2022/07/03 02:21:54;;;;;;;3.40;3.20;;;17.10;99.90;;;;;;4991372;28;20944;-66
2022/07/03 02:24:22;;;;;;;3.57;3.27;;;17.10;99.90;;;;;;4989152;28;20438;-66
2022/07/03 02:26:59;;;;;;;3.77;3.47;;;17.20;99.90;;;;;;4986848;28;20454;-66
2022/07/03 02:29:40;;;;;;;3.00;2.80;;;17.10;99.90;;;;;;4988587;28;20522;-67
2022/07/03 02:32:11;;;;;;;3.57;3.37;;;17.10;99.90;;;;;;4991852;28;20440;-66
2022/07/03 02:34:38;;;;;;;4.00;3.53;;;17.10;99.90;;;;;;4996830;28;20807;-67
2022/07/03 02:37:11;;;;;;;3.27;2.50;;;17.00;99.90;;;;;;4995678;28;20466;-66
2022/07/03 02:40:14;;;;;;;3.30;3.10;;;16.90;99.90;;;;;;4991503;28;20462;-67
2022/07/03 02:42:50;;;;;;;3.10;2.80;;;16.90;99.90;;;;;;4992913;28;20441;-66
2022/07/03 02:45:19;;;;;;;3.70;3.40;;;17.00;99.90;;;;;;4997288;28;20434;-67
2022/07/03 02:48:06;;;;;;;5.20;4.90;;;16.90;99.90;;;;;;4998298;28;20462;-67
2022/07/03 02:50:36;;;;;;;3.27;3.07;;;16.90;99.90;;;;;;4992801;28;20457;-67
2022/07/03 02:53:16;;;;;;;4.53;3.13;;;16.90;99.90;;;;;;4992505;28;20445;-66
2022/07/03 02:55:44;;;;;;;3.00;2.80;;;16.80;99.90;;;;;;4991556;28;20446;-66
2022/07/03 02:58:37;;;;;;;3.63;3.37;;;16.80;99.90;;;;;;4992905;28;20450;-64
2022/07/03 03:01:09;;;;;;;3.30;3.10;;;16.80;99.90;;;;;;5000944;28;20431;-66
2022/07/03 03:03:38;;;;;;;3.23;3.03;;;16.90;99.90;;;;;;4996656;28;20439;-67
2022/07/03 03:06:14;;;;;;;3.33;3.10;;;17.00;99.90;;;;;;4991399;28;20763;-67
2022/07/03 03:08:58;;;;;;;3.40;3.10;;;17.00;99.90;;;;;;4988113;28;20441;-67
2022/07/03 03:11:37;;;;;;;3.07;2.87;;;17.00;99.90;;;;;;4986461;28;20453;-66
2022/07/03 03:14:07;;;;;;;3.30;3.00;;;17.10;99.90;;;;;;4995016;28;20461;-66
2022/07/03 03:16:33;;;;;;;3.37;3.17;;;17.10;99.90;;;;;;4993327;28;20594;-67
2022/07/03 03:18:58;;;;;;;3.70;3.20;;;17.10;99.90;;;;;;4991673;28;20466;-66
2022/07/03 03:21:27;;;;;;;2.90;2.70;;;17.10;99.90;;;;;;4993302;28;20175;-67
2022/07/03 03:23:53;;;;;;;3.43;3.23;;;17.00;99.90;;;;;;4993638;28;20210;-63
2022/07/03 03:26:28;;;;;;;3.60;3.20;;;17.10;99.90;;;;;;4996091;28;20472;-67
2022/07/03 03:28:54;;;;;;;2.97;2.87;;;17.10;99.90;;;;;;4992406;28;20607;-67
2022/07/03 03:31:21;;;;;;;3.40;3.20;;;17.10;99.90;;;;;;4991323;28;20438;-66
2022/07/03 03:33:49;;;;;;;2.80;2.60;;;17.10;99.90;;;;;;4992099;28;20439;-67
2022/07/03 03:36:17;;;;;;;3.27;2.97;;;17.10;99.90;;;;;;4992723;28;20446;-66
2022/07/03 03:38:43;;;;;;;3.40;3.20;;;17.20;99.90;;;;;;4990098;28;20473;-66
2022/07/03 03:41:09;;;;;;;3.10;2.90;;;17.10;99.90;;;;;;4991638;28;20792;-66
2022/07/03 03:43:35;;;;;;;3.27;3.07;;;17.20;99.90;;;;;;4990693;28;20873;-66
2022/07/03 03:46:02;;;;;;;3.27;3.07;;;17.10;99.90;;;;;;4991150;28;20549;-66
2022/07/03 03:48:28;;;;;;;3.40;3.20;;;17.20;99.90;;;;;;4991169;28;21016;-66
2022/07/03 03:50:56;;;;;;;4.30;3.23;;;17.20;99.90;;;;;;4991680;28;20434;-67
2022/07/03 03:53:23;;;;;;;3.00;2.80;;;17.30;99.90;;;;;;4991345;28;20465;-67
2022/07/03 03:56:12;;;;;;;3.13;2.93;;;17.30;99.90;;;;;;4992851;28;20441;-67
2022/07/03 03:58:39;;;;;;;2.87;2.67;;;17.40;99.90;;;;;;4991183;28;20474;-66
2022/07/03 04:01:07;;;;;;;3.00;2.80;;;17.50;99.90;;;;;;4991099;28;20845;-66
2022/07/03 04:03:33;;;;;;;3.27;3.07;;;17.50;99.90;;;;;;4992122;28;20439;-67
2022/07/03 04:05:59;;;;;;;3.90;3.63;;;17.60;99.90;;;;;;4989787;28;20824;-66
2022/07/03 04:08:26;;;;;;;2.90;2.70;;;17.70;99.90;;;;;;4989918;28;20912;-65
2022/07/03 04:10:52;;;;;;;3.67;3.37;;;17.80;99.90;;;;;;4992175;28;20442;-65
2022/07/03 04:13:21;;;;;;;3.00;2.80;;;17.90;99.90;;;;;;4991603;28;20493;-65
2022/07/03 04:15:51;;;;;;;2.90;2.70;;;18.00;99.90;;;;;;4991729;28;20535;-64
2022/07/03 04:18:17;;;;;;;6.30;2.73;;;18.10;99.90;;;;;;4992064;28;20490;-64
2022/07/03 04:20:42;;;;;;;3.20;3.00;;;18.10;99.90;;;;;;4992366;28;20435;-65
2022/07/03 04:23:08;;;;;;;3.30;3.10;;;18.20;99.90;;;;;;4991252;28;21003;-65
2022/07/03 04:25:33;;;;;;;3.20;3.00;;;18.20;99.90;;;;;;4991927;28;20187;-65
2022/07/03 04:28:00;;;;;;;4.07;3.20;;;18.30;99.90;;;;;;4990736;28;20231;-65
2022/07/03 04:30:26;;;;;;;4.20;3.80;;;18.30;99.90;;;;;;4989144;28;20271;-65
2022/07/03 04:32:52;;;;;;;3.27;2.97;;;18.40;99.90;;;;;;4992803;28;20960;-65
2022/07/03 04:35:17;;;;;;;3.07;2.87;;;18.50;99.90;;;;;;4993934;28;20454;-65
2022/07/03 04:37:44;;;;;;;3.10;2.90;;;18.50;99.90;;;;;;4993040;28;20200;-65
2022/07/03 04:40:10;;;;;;;4.50;3.23;;;18.60;99.90;;;;;;4990139;28;20293;-65
2022/07/03 04:42:36;;;;;;;2.97;2.77;;;18.60;99.90;;;;;;4988354;28;20493;-66
2022/07/03 04:45:02;;;;;;;2.60;2.40;;;18.70;99.90;;;;;;4991765;28;20905;-66
2022/07/03 04:47:28;;;;;;;3.30;3.00;;;18.90;99.90;;;;;;4989176;28;20269;-66
2022/07/03 04:49:53;;;;;;;2.97;2.77;;;19.10;99.90;;;;;;4990876;28;20471;-65
2022/07/03 04:52:19;;;;;;;3.50;3.20;;;19.20;99.90;;;;;;4989398;28;20188;-65
2022/07/03 04:54:44;;;;;;;2.97;2.40;;;19.20;99.90;;;;;;4995836;28;20187;-65
2022/07/03 04:57:10;;;;;;;3.07;2.80;;;19.40;99.90;;;;;;4988137;28;21072;-65
2022/07/03 04:59:35;;;;;;;3.07;2.87;;;19.80;99.90;;;;;;4991454;28;20692;-65
2022/07/03 05:02:01;;;;;;;2.83;2.70;;;19.60;99.90;;;;;;4991302;28;20187;-65
2022/07/03 05:04:27;;;;;;;2.87;2.67;;;19.90;99.90;;;;;;4993831;28;20567;-65
2022/07/03 05:06:52;;;;;;;4.30;2.33;;;20.10;99.90;;;;;;4991267;28;20207;-66
2022/07/03 05:09:18;;;;;;;2.80;2.60;;;20.30;99.90;;;;;;4988326;28;20697;-65
2022/07/03 05:11:44;;;;;;;3.23;2.80;;;20.50;99.90;;;;;;4988167;28;20226;-66
2022/07/03 05:14:10;;;;;;;3.13;2.93;;;20.60;99.90;;;;;;4991101;28;20230;-65
2022/07/03 05:16:35;;;;;;;2.73;2.63;;;20.70;99.90;;;;;;4989852;28;20207;-65
2022/07/03 05:19:01;;;;;;;2.70;2.40;;;20.80;99.90;;;;;;4991823;28;20257;-66
2022/07/03 05:21:26;;;;;;;3.00;2.80;;;21.00;99.90;;;;;;4994026;28;20536;-65
2022/07/03 05:23:52;;;;;;;3.23;3.00;;;21.20;99.90;;;;;;4992099;28;20199;-64
2022/07/03 05:26:18;;;;;;;2.67;2.47;;;21.20;99.90;;;;;;4995795;28;20207;-65
2022/07/03 05:28:43;;;;;;;2.80;2.60;;;21.30;99.90;;;;;;4988162;28;20340;-66
2022/07/03 05:31:09;;;;;;;3.30;3.10;;;21.40;99.90;;;;;;4987577;28;20202;-66
2022/07/03 05:33:35;;;;;;;2.90;2.70;;;21.50;99.90;;;;;;4994747;28;20195;-65
2022/07/03 05:36:00;;;;;;;2.80;2.60;;;21.70;99.90;;;;;;5002375;28;20270;-66
2022/07/03 05:41:11;;;;;;;2.20;2.10;;;21.80;99.90;;;;;;4999078;28;20196;-65
2022/07/03 05:43:37;;;;;;;2.30;2.20;;;22.10;99.90;;;;;;5001699;28;20927;-67
2022/07/03 05:46:03;;;;;;;2.73;2.53;;;22.30;99.90;;;;;;4995646;28;20208;-66
2022/07/03 05:48:28;;;;;;;3.10;2.67;;;22.40;99.90;;;;;;4989599;28;20452;-65
2022/07/03 05:50:54;;;;;;;2.40;2.30;;;22.40;99.90;;;;;;4990426;28;20431;-66
2022/07/03 05:53:19;;;;;;;2.37;2.23;;;22.60;99.90;;;;;;4988347;28;20257;-67
2022/07/03 05:55:45;;;;;;;2.70;2.60;;;22.80;99.90;;;;;;4990611;28;20263;-65
2022/07/03 05:58:11;;;;;;;2.60;2.40;;;23.00;99.90;;;;;;4991106;28;20234;-65
2022/07/03 06:00:36;;;;;;;5.37;2.37;;;23.20;99.90;;;;;;4989716;28;20188;-66
2022/07/03 06:03:02;;;;;;;2.63;2.53;;;23.20;99.90;;;;;;4990328;28;20179;-65
2022/07/03 06:05:28;;;;;;;3.57;2.97;;;23.40;99.90;;;;;;4994062;28;20234;-65
2022/07/03 06:07:54;;;;;;;2.27;2.17;;;23.50;99.90;;;;;;4996807;28;20599;-65
2022/07/03 06:10:19;;;;;;;3.73;2.60;;;23.60;99.90;;;;;;4996112;28;20457;-66
2022/07/03 06:12:45;;;;;;;2.77;2.57;;;23.80;99.90;;;;;;4996370;28;20198;-66
2022/07/03 06:15:10;;;;;;;3.17;2.30;;;23.90;99.90;;;;;;4996912;28;20277;-66
2022/07/03 06:17:36;;;;;;;3.43;2.40;;;23.90;99.90;;;;;;4995468;28;20203;-66
2022/07/03 06:20:04;;;;;;;4.23;2.07;;;24.00;99.90;;;;;;5000134;28;20207;-66
2022/07/03 06:22:29;;;;;;;2.50;2.30;;;24.00;99.90;;;;;;5003683;28;20446;-65
2022/07/03 06:24:55;;;;;;;2.63;2.37;;;24.00;99.90;;;;;;5006058;28;20433;-65
2022/07/03 06:27:21;;;;;;;2.73;2.37;;;24.20;99.90;;;;;;5003710;28;20198;-66
2022/07/03 06:29:49;;;;;;;2.37;2.20;;;24.40;99.90;;;;;;5003901;28;20659;-66
2022/07/03 06:32:15;;;;;;;1.80;1.70;;;24.50;99.90;;;;;;5003818;28;20948;-65
2022/07/03 06:34:42;;;;;;;1.90;1.80;;;24.50;99.90;;;;;;5002927;28;20453;-65
2022/07/03 06:37:08;;;;;;;2.50;2.30;;;24.50;99.90;;;;;;5002075;28;20203;-65
2022/07/03 06:39:34;;;;;;;3.83;2.30;;;24.40;99.90;;;;;;5009090;28;20532;-65
2022/07/03 06:41:59;;;;;;;2.33;2.23;;;24.30;99.90;;;;;;5005251;28;20194;-67
2022/07/03 06:44:25;;;;;;;2.10;2.00;;;24.30;99.90;;;;;;5004999;28;20230;-66
2022/07/03 06:46:50;;;;;;;2.67;2.30;;;24.30;99.90;;;;;;5008800;28;20228;-66
2022/07/03 06:49:16;;;;;;;2.07;1.97;;;24.30;99.90;;;;;;4998540;28;20198;-66
2022/07/03 06:51:41;;;;;;;5.57;5.13;;;24.40;99.90;;;;;;5001035;28;20187;-65
2022/07/03 06:54:07;;;;;;;2.50;2.30;;;24.70;99.90;;;;;;5000866;28;20562;-67
2022/07/03 06:56:32;;;;;;;2.47;2.37;;;24.90;99.90;;;;;;5008730;28;20215;-66
2022/07/03 06:58:58;;;;;;;2.37;2.17;;;25.00;99.90;;;;;;5007934;28;20214;-66
2022/07/03 07:01:23;;;;;;;2.13;2.03;;;25.20;99.90;;;;;;5003987;28;20645;-68
2022/07/03 07:03:49;;;;;;;2.10;2.00;;;25.20;99.90;;;;;;5004152;28;20214;-66
2022/07/03 07:06:14;;;;;;;1.93;1.83;;;25.40;99.90;;;;;;5007877;28;20203;-66
2022/07/03 07:08:40;;;;;;;2.17;2.07;;;25.30;99.90;;;;;;5003617;28;20178;-67
2022/07/03 07:11:05;;;;;;;1.80;1.70;;;25.10;99.90;;;;;;5008734;28;20641;-66
2022/07/03 07:13:31;;;;;;;1.57;1.47;;;25.20;99.90;;;;;;4999840;28;20186;-66
2022/07/03 07:15:56;;;;;;;1.97;1.87;;;25.20;99.90;;;;;;5005321;28;20608;-68
2022/07/03 07:18:22;;;;;;;2.47;2.07;;;25.30;99.90;;;;;;5001765;28;20192;-65
2022/07/03 07:20:47;;;;;;;4.97;1.70;;;25.40;99.90;;;;;;4991110;28;20188;-67
2022/07/03 07:23:13;;;;;;;2.63;1.80;;;25.40;99.90;;;;;;4997327;28;20178;-67
2022/07/03 07:25:38;;;;;;;1.70;1.60;;;25.70;99.90;;;;;;4993012;28;20179;-68
2022/07/03 07:28:04;;;;;;;2.80;2.60;;;25.70;99.80;;;;;;4993139;28;20254;-67
2022/07/03 07:30:29;;;;;;;1.97;1.77;;;26.00;98.80;;;;;;4993117;28;20188;-67
2022/07/03 07:32:55;;;;;;;2.70;2.50;;;25.90;98.50;;;;;;4994468;28;20184;-67
2022/07/03 07:35:21;;;;;;;3.00;2.77;;;25.90;98.70;;;;;;5000942;28;20604;-67
2022/07/03 07:37:48;;;;;;;2.10;2.00;;;26.10;98.50;;;;;;5001294;28;20207;-68
2022/07/03 07:40:13;;;;;;;2.33;2.20;;;26.20;98.60;;;;;;5003513;28;20207;-68
2022/07/03 07:42:39;;;;;;;2.00;1.90;;;26.50;98.40;;;;;;5003578;28;20438;-68
2022/07/03 07:45:05;;;;;;;4.40;1.67;;;26.70;96.90;;;;;;5006551;28;20555;-68
2022/07/03 07:47:30;;;;;;;2.17;2.07;;;26.70;96.40;;;;;;4999055;28;20211;-68
2022/07/03 07:49:56;;;;;;;1.60;1.50;;;26.80;96.80;;;;;;4990997;28;20453;-69
2022/07/03 07:52:24;;;;;;;2.23;2.13;;;27.00;97.10;;;;;;4993558;28;20205;-68
2022/07/03 07:54:49;;;;;;;3.20;2.50;;;27.20;96.10;;;;;;5003247;28;20187;-68
2022/07/03 07:57:15;;;;;;;1.90;1.57;;;27.20;96.30;;;;;;5001768;28;20472;-68
2022/07/03 07:59:41;;;;;;;4.90;4.23;;;27.20;95.50;;;;;;5002871;28;20218;-68
2022/07/03 08:07:34;;;;;;;4.10;1.47;;;27.80;90.50;;;;;;4990738;28;20453;-69
2022/07/03 08:10:00;;;;;;;1.67;1.50;;;28.00;90.20;;;;;;4993392;28;20439;-67
2022/07/03 08:12:25;;;;;;;2.37;2.17;;;27.90;89.90;;;;;;4997325;28;20551;-68
2022/07/03 08:14:50;;;;;;;3.33;3.13;;;28.00;90.10;;;;;;4996604;28;20269;-68
2022/07/03 08:17:16;;;;;;;1.97;1.87;;;27.90;88.30;;;;;;4995879;28;20572;-68
2022/07/03 08:19:41;;;;;;;2.40;1.70;;;27.70;87.30;;;;;;4994179;28;20211;-69
2022/07/03 08:22:08;;;;;;;2.90;1.87;;;27.90;89.60;;;;;;4992171;28;20207;-69
2022/07/03 08:24:33;;;;;;;2.30;2.00;;;28.00;90.10;;;;;;5002532;28;20206;-69
2022/07/03 08:26:59;;;;;;;2.13;2.00;;;27.80;88.50;;;;;;5004048;28;20453;-69
2022/07/03 08:29:25;;;;;;;1.70;1.60;;;27.90;88.00;;;;;;4999797;28;20278;-67
2022/07/03 08:31:50;;;;;;;2.23;1.80;;;28.00;86.40;;;;;;5004720;28;20183;-68
2022/07/03 08:34:16;;;;;;;1.93;1.83;;;28.10;88.30;;;;;;5003478;28;20186;-68
2022/07/03 08:36:42;;;;;;;1.60;1.50;;;28.40;87.30;;;;;;5003449;28;20207;-68
2022/07/03 08:39:09;;;;;;;1.70;1.60;;;28.60;84.80;;;;;;5001969;28;20691;-69
2022/07/03 08:41:38;;;;;;;2.50;1.40;;;28.60;83.90;;;;;;5000032;28;20187;-69
2022/07/03 08:44:04;;;;;;;2.10;1.43;;;28.70;83.90;;;;;;5003276;28;20430;-68
2022/07/03 08:46:32;;;;;;;1.87;1.43;;;29.00;82.10;;;;;;5003235;28;20527;-68
2022/07/03 08:49:01;;;;;;;1.53;1.23;;;29.20;78.30;;;;;;5003298;28;20438;-69
2022/07/03 08:51:27;;;;;;;3.50;3.30;;;29.60;76.40;;;;;;5000082;28;20592;-68
2022/07/03 08:53:56;;;;;;;1.73;1.63;;;29.90;75.50;;;;;;5000653;28;21019;-68
2022/07/03 08:56:23;;;;;;;1.83;1.60;;;30.30;75.10;;;;;;4989089;28;20202;-69
2022/07/03 08:58:49;;;;;;;1.70;1.60;;;30.20;71.30;;;;;;5002973;28;20468;-68
2022/07/03 09:01:18;;;;;;;1.60;1.50;;;30.20;71.70;;;;;;4999956;28;20939;-68
2022/07/03 09:03:45;;;;;;;1.73;1.50;;;30.50;73.30;;;;;;4999692;28;20218;-68
2022/07/03 09:06:13;;;;;;;3.17;1.90;;;30.70;70.20;;;;;;5002084;28;20430;-68
2022/07/03 09:08:39;;;;;;;5.03;1.70;;;30.60;69.40;;;;;;5001795;28;20878;-69
2022/07/03 09:11:05;;;;;;;1.70;1.60;;;30.90;69.50;;;;;;4997079;28;20442;-68
2022/07/03 09:13:30;;;;;;;1.60;1.50;;;30.90;65.00;;;;;;5000007;28;20492;-68
2022/07/03 09:15:56;;;;;;;4.40;1.50;;;30.90;65.10;;;;;;5000277;28;20179;-69
2022/07/03 09:18:40;;;;;;;3.47;1.97;;;30.80;62.20;;;;;;5000701;28;20181;-68
2022/07/03 09:21:06;;;;;;;2.30;2.20;;;31.10;62.20;;;;;;5001491;28;20305;-69
2022/07/03 09:23:39;;;;;;;2.20;1.90;;;31.40;60.50;;;;;;5000098;28;20801;-68
2022/07/03 09:26:06;;;;;;;2.10;1.47;;;31.20;59.70;;;;;;4999221;28;20932;-68
2022/07/03 09:28:52;;;;;;;2.17;1.63;;;31.00;60.70;;;;;;5002892;28;20441;-68
2022/07/03 09:31:20;;;;;;;2.83;2.57;;;30.90;59.70;;;;;;4999516;28;20879;-69
2022/07/03 09:34:04;;;;;;;1.40;1.30;;;30.90;59.20;;;;;;5000901;28;20510;-68
2022/07/03 09:36:45;;;;;;;1.83;1.73;;;30.60;56.50;;;;;;4976454;28;20496;-68
2022/07/03 09:39:23;;;;;;;1.50;1.40;;;30.70;57.60;;;;;;4998222;28;20475;-68
2022/07/03 09:41:57;;;;;;;1.50;1.40;;;30.90;58.20;;;;;;4994775;28;20470;-68
2022/07/03 09:44:33;;;;;;;1.17;1.10;;;31.30;56.50;;;;;;4989086;28;20803;-68
2022/07/03 09:47:18;;;;;;;3.30;1.53;;;31.20;55.90;;;;;;4994256;28;20926;-68
2022/07/03 09:49:46;;;;;;;1.83;1.73;;;31.90;56.90;;;;;;4993976;28;20441;-68
2022/07/03 09:52:31;;;;;;;1.77;1.67;;;32.40;57.70;;;;;;5002311;28;20438;-68
2022/07/03 09:55:10;;;;;;;2.10;1.53;;;32.50;56.80;;;;;;5001998;28;20453;-69
2022/07/03 09:57:44;;;;;;;1.80;1.70;;;33.00;57.00;;;;;;4998363;28;21062;-69
2022/07/03 10:00:24;;;;;;;2.20;1.83;;;33.60;56.30;;;;;;5000618;28;20481;-68
2022/07/03 10:02:58;;;;;;;2.47;2.37;;;33.70;54.90;;;;;;5002938;28;20469;-68
2022/07/03 10:05:26;;;;;;;2.03;1.83;;;33.60;55.50;;;;;;4990373;28;20927;-68
2022/07/03 10:08:12;;;;;;;2.10;1.60;;;33.80;53.80;;;;;;4996174;28;20454;-68
2022/07/03 10:10:41;;;;;;;1.83;1.60;;;34.70;53.10;;;;;;4993493;28;20429;-69
2022/07/03 10:13:07;;;;;;;2.30;2.07;;;34.60;52.80;;;;;;4999538;28;20908;-68
2022/07/03 10:15:37;;;;;;;2.90;1.30;;;35.20;52.10;;;;;;4999712;28;20528;-68
2022/07/03 10:18:05;;;;;;;1.37;1.37;;;35.70;51.30;;;;;;5000794;28;20570;-68
2022/07/03 10:20:35;;;;;;;2.00;1.90;;;36.60;49.40;;;;;;4996260;28;20597;-69
2022/07/03 10:23:01;;;;;;;2.10;2.00;;;36.80;48.40;;;;;;4993137;28;20497;-66
2022/07/03 10:25:27;;;;;;;2.10;1.67;;;36.00;49.50;;;;;;4992838;28;20438;-69
2022/07/03 10:27:52;;;;;;;3.87;2.23;;;37.00;48.80;;;;;;4999757;28;20442;-68
2022/07/03 10:30:20;;;;;;;1.73;1.63;;;38.20;47.30;;;;;;5001900;28;20189;-68
2022/07/03 10:32:48;;;;;;;2.90;2.23;;;36.50;46.90;;;;;;5002967;28;20183;-68
2022/07/03 10:35:20;;;;;;;1.80;1.70;;;36.60;46.70;;;;;;4999872;28;20437;-68
2022/07/03 10:38:00;;;;;;;2.30;2.20;;;36.00;47.00;;;;;;4999723;28;20458;-68
2022/07/03 10:46:21;;;;;;;2.03;1.40;;;37.20;44.80;;;;;;5001767;28;20889;-68
2022/07/03 10:49:07;;;;;;;2.00;1.90;;;38.40;43.40;;;;;;5002352;28;20436;-68
2022/07/03 10:51:58;;;;;;;2.27;1.90;;;39.40;42.70;;;;;;4997791;28;20787;-68
2022/07/03 10:54:36;;;;;;;2.70;2.47;;;40.60;42.90;;;;;;4991307;28;20916;-68
2022/07/03 10:57:10;;;;;;;2.93;2.00;;;40.90;42.40;;;;;;5005284;28;20461;-68
2022/07/03 10:59:35;;;;;;;2.37;2.27;;;40.90;41.50;;;;;;4995438;28;20563;-68
2022/07/03 11:02:28;;;;;;;1.63;1.53;;;40.90;41.40;;;;;;5001749;28;20956;-68
2022/07/03 11:04:59;;;;;;;3.33;1.80;;;39.00;42.40;;;;;;5004696;28;20546;-69
2022/07/03 11:07:28;;;;;;;1.70;1.60;;;39.00;42.60;;;;;;5001960;28;20978;-68
2022/07/03 11:10:12;;;;;;;1.83;1.40;;;38.90;42.20;;;;;;4993910;28;20525;-68
2022/07/03 11:12:56;;;;;;;1.40;1.30;;;38.40;43.50;;;;;;4993479;28;20440;-68
2022/07/03 11:15:34;;;;;;;1.87;1.77;;;39.70;42.70;;;;;;5001674;28;20448;-68
2022/07/03 11:18:09;;;;;;;1.57;1.43;;;41.20;41.40;;;;;;5005591;28;20993;-68
2022/07/03 11:21:12;;;;;;;2.40;1.60;;;39.90;41.30;;;;;;5001790;28;20461;-68
2022/07/03 11:24:04;;;;;;;2.10;1.17;;;39.50;42.70;;;;;;4998785;28;20515;-68
2022/07/03 11:26:30;;;;;;;3.97;3.67;;;39.80;42.00;;;;;;4995377;28;20465;-68
2022/07/03 11:28:55;;;;;;;2.17;2.03;;;41.30;41.90;;;;;;5001856;28;20442;-68
2022/07/03 11:31:23;;;;;;;1.70;1.60;;;41.70;41.40;;;;;;5006019;28;20261;-68
2022/07/03 11:33:51;;;;;;;2.03;1.93;;;40.50;42.30;;;;;;5006145;28;20222;-68
2022/07/03 11:36:16;;;;;;;1.67;1.57;;;40.50;42.30;;;;;;5003235;28;20549;-66
2022/07/03 11:38:47;;;;;;;1.27;1.27;;;41.60;41.70;;;;;;5000945;28;20561;-66
2022/07/03 11:41:15;;;;;;;1.73;1.60;;;41.70;41.60;;;;;;5003821;28;20200;-66
2022/07/03 11:43:48;;;;;;;1.63;1.53;;;42.50;42.50;;;;;;5005663;28;20450;-66
2022/07/03 11:46:18;;;;;;;1.77;1.67;;;42.40;49.20;;;;;;5003644;28;20468;-66
2022/07/03 11:48:43;;;;;;;3.53;1.40;;;42.30;51.30;;;;;;5000900;28;20781;-66
2022/07/03 11:51:09;;;;;;;2.10;2.00;;;40.20;52.00;;;;;;5003903;28;20525;-66
2022/07/03 11:53:36;;;;;;;1.50;1.40;;;41.10;50.40;;;;;;5004148;28;20183;-65
2022/07/03 11:56:06;;;;;;;1.50;1.40;;;39.40;53.20;;;;;;5002033;28;20200;-66
2022/07/03 11:58:49;;;;;;;1.67;1.53;;;39.80;52.80;;;;;;5005869;28;20987;-66
2022/07/03 12:01:29;;;;;;;1.73;1.60;;;41.00;48.70;;;;;;5001383;28;20929;-66
2022/07/03 12:04:12;;;;;;;5.60;5.20;;;41.00;46.30;;;;;;5003751;28;20528;-66
2022/07/03 12:06:52;;;;;;;2.37;1.97;;;39.80;45.30;;;;;;4996255;28;20520;-66
2022/07/03 12:09:20;;;;;;;2.30;2.20;;;39.60;46.30;;;;;;5000685;28;20958;-66
2022/07/03 12:12:00;;;;;;;1.83;1.73;;;40.90;45.10;;;;;;5004820;28;20856;-66
2022/07/03 12:14:43;;;;;;;1.70;1.60;;;40.60;44.60;;;;;;4997700;28;20486;-66
2022/07/03 12:17:16;;;;;;;1.67;1.57;;;40.40;44.00;;;;;;5001449;28;20462;-65
2022/07/03 12:20:00;;;;;;;2.07;1.83;;;40.10;43.90;;;;;;5002258;28;20547;-66
2022/07/03 12:22:31;;;;;;;1.63;1.53;;;38.90;44.80;;;;;;4996743;28;20465;-68
2022/07/03 12:25:06;;;;;;;2.13;2.03;;;39.20;44.40;;;;;;5000973;28;20449;-68
2022/07/03 12:27:39;;;;;;;1.87;1.77;;;39.00;45.20;;;;;;5004626;28;20872;-68
2022/07/03 12:30:10;;;;;;;1.40;1.30;;;40.60;44.10;;;;;;5000891;28;20890;-68
2022/07/03 12:32:37;;;;;;;1.30;1.30;;;39.90;43.30;;;;;;4999881;28;20454;-68
2022/07/03 12:35:03;;;;;;;1.50;1.40;;;40.80;42.80;;;;;;5001573;28;20808;-67
2022/07/03 12:37:40;;;;;;;2.00;1.90;;;40.00;43.00;;;;;;5004235;28;20565;-68
2022/07/03 12:40:07;;;;;;;1.33;1.33;;;42.10;42.70;;;;;;5001879;28;20206;-68
2022/07/03 12:42:45;;;;;;;2.70;1.80;;;43.80;45.20;;;;;;5004702;28;20549;-66
2022/07/03 12:45:22;;;;;;;3.23;1.83;;;43.80;45.40;;;;;;4996193;28;20438;-68
2022/07/03 12:48:05;;;;;;;1.40;1.40;;;42.60;44.60;;;;;;5001923;28;20553;-68
2022/07/03 12:50:52;;;;;;;1.50;1.40;;;41.40;45.10;;;;;;4995674;28;20515;-68
2022/07/03 12:53:32;;;;;;;1.60;1.50;;;42.00;44.60;;;;;;4994725;28;20438;-68
2022/07/03 12:56:05;;;;;;;2.73;1.73;;;43.10;43.80;;;;;;4999861;28;20439;-68
2022/07/03 13:01:34;;;;;;;1.60;1.50;;;42.80;43.20;;;;;;5004633;28;20445;-68
2022/07/03 13:04:00;;;;;;;1.33;1.30;;;41.90;43.90;;;;;;5005141;28;20526;-68
2022/07/03 13:06:26;;;;;;;1.90;1.80;;;43.20;42.80;;;;;;4999585;28;20545;-68
2022/07/03 13:08:58;;;;;;;1.80;1.70;;;44.40;42.10;;;;;;4999164;28;20525;-68
2022/07/03 13:11:41;;;;;;;2.00;1.90;;;45.40;41.10;;;;;;5004147;28;20664;-68
2022/07/03 13:14:11;;;;;;;2.10;2.00;;;45.10;39.30;;;;;;5002276;28;20461;-68
2022/07/03 13:16:48;;;;;;;1.90;1.80;;;44.30;40.80;;;;;;4999276;28;20569;-68
2022/07/03 13:19:17;;;;;;;2.50;1.60;;;43.20;41.50;;;;;;4997906;28;20553;-68
2022/07/03 13:21:44;;;;;;;1.57;1.53;;;44.40;39.80;;;;;;5000718;28;20438;-68